sensor_id;sensor_type;location;lat;lon;timestamp;pressure;altitude;pressure_sealevel;temperature
22322;BMP180;11328;53.928;18.522;2022-12-05T00:01:29;101060.00;;;2.50
22322;BMP180;11328;53.928;18.522;2022-12-05T00:04:00;101052.00;;;2.50
22322;BMP180;11328;53.928;18.522;2022-12-05T00:06:29;101044.00;;;2.50
22322;BMP180;11328;53.928;18.522;2022-12-05T00:08:57;101050.00;;;2.50
22322;BMP180;11328;53.928;18.522;2022-12-05T00:11:28;101050.00;;;2.60
22322;BMP180;11328;53.928;18.522;2022-12-05T00:13:58;101056.00;;;2.70
22322;BMP180;11328;53.928;18.522;2022-12-05T00:16:28;101052.00;;;2.60
22322;BMP180;11328;53.928;18.522;2022-12-05T00:18:59;101046.00;;;2.70
22322;BMP180;11328;53.928;18.522;2022-12-05T00:21:29;101044.00;;;2.70
22322;BMP180;11328;53.928;18.522;2022-12-05T00:24:00;101044.00;;;2.70
22322;BMP180;11328;53.928;18.522;2022-12-05T00:26:29;101032.00;;;2.60
22322;BMP180;11328;53.928;18.522;2022-12-05T00:28:57;101028.00;;;2.40
22322;BMP180;11328;53.928;18.522;2022-12-05T00:31:26;101014.00;;;2.40
22322;BMP180;11328;53.928;18.522;2022-12-05T00:33:54;101015.00;;;2.50
22322;BMP180;11328;53.928;18.522;2022-12-05T00:36:26;101025.00;;;2.50
22322;BMP180;11328;53.928;18.522;2022-12-05T00:38:55;101022.00;;;2.50
22322;BMP180;11328;53.928;18.522;2022-12-05T00:41:27;101011.00;;;2.40
22322;BMP180;11328;53.928;18.522;2022-12-05T00:43:58;101015.00;;;2.40
22322;BMP180;11328;53.928;18.522;2022-12-05T00:46:29;101005.00;;;2.40
22322;BMP180;11328;53.928;18.522;2022-12-05T00:48:58;101016.00;;;2.50
22322;BMP180;11328;53.928;18.522;2022-12-05T00:51:39;101025.00;;;2.50
22322;BMP180;11328;53.928;18.522;2022-12-05T00:54:10;101037.00;;;2.50
22322;BMP180;11328;53.928;18.522;2022-12-05T00:56:37;101034.00;;;2.60
22322;BMP180;11328;53.928;18.522;2022-12-05T00:59:06;101036.00;;;2.50
22322;BMP180;11328;53.928;18.522;2022-12-05T01:01:38;101029.00;;;2.50
22322;BMP180;11328;53.928;18.522;2022-12-05T01:04:10;101036.00;;;2.60
22322;BMP180;11328;53.928;18.522;2022-12-05T01:06:38;101041.00;;;2.60
22322;BMP180;11328;53.928;18.522;2022-12-05T01:09:07;101032.00;;;2.70
22322;BMP180;11328;53.928;18.522;2022-12-05T01:11:34;101029.00;;;2.70
22322;BMP180;11328;53.928;18.522;2022-12-05T01:14:11;101036.00;;;2.70
22322;BMP180;11328;53.928;18.522;2022-12-05T01:16:41;101015.00;;;2.80
22322;BMP180;11328;53.928;18.522;2022-12-05T01:19:20;101026.00;;;2.70
22322;BMP180;11328;53.928;18.522;2022-12-05T01:21:48;101028.00;;;2.80
22322;BMP180;11328;53.928;18.522;2022-12-05T01:24:16;101030.00;;;2.70
22322;BMP180;11328;53.928;18.522;2022-12-05T01:26:46;101030.00;;;2.60
22322;BMP180;11328;53.928;18.522;2022-12-05T01:29:17;101038.00;;;2.60
22322;BMP180;11328;53.928;18.522;2022-12-05T01:31:45;101029.00;;;2.60
22322;BMP180;11328;53.928;18.522;2022-12-05T01:34:15;101034.00;;;2.60
22322;BMP180;11328;53.928;18.522;2022-12-05T01:36:43;101024.00;;;2.60
22322;BMP180;11328;53.928;18.522;2022-12-05T01:50:54;101023.00;;;3.40
22322;BMP180;11328;53.928;18.522;2022-12-05T01:53:22;101026.00;;;3.20
22322;BMP180;11328;53.928;18.522;2022-12-05T01:55:50;101014.00;;;3.00
22322;BMP180;11328;53.928;18.522;2022-12-05T01:58:18;101013.00;;;2.90
22322;BMP180;11328;53.928;18.522;2022-12-05T02:00:46;101014.00;;;2.80
22322;BMP180;11328;53.928;18.522;2022-12-05T02:03:18;101020.00;;;2.70
22322;BMP180;11328;53.928;18.522;2022-12-05T02:05:50;101015.00;;;2.60
22322;BMP180;11328;53.928;18.522;2022-12-05T02:08:20;101016.00;;;2.60
22322;BMP180;11328;53.928;18.522;2022-12-05T02:10:54;100997.00;;;2.50
22322;BMP180;11328;53.928;18.522;2022-12-05T02:19:46;101010.00;;;2.50
22322;BMP180;11328;53.928;18.522;2022-12-05T02:31:46;100998.00;;;2.50
22322;BMP180;11328;53.928;18.522;2022-12-05T02:38:00;100998.00;;;2.40
22322;BMP180;11328;53.928;18.522;2022-12-05T02:46:03;101000.00;;;2.40
22322;BMP180;11328;53.928;18.522;2022-12-05T02:48:34;100972.00;;;2.40
22322;BMP180;11328;53.928;18.522;2022-12-05T02:51:04;100981.00;;;2.50
22322;BMP180;11328;53.928;18.522;2022-12-05T02:53:36;100991.00;;;2.40
22322;BMP180;11328;53.928;18.522;2022-12-05T02:56:05;100997.00;;;2.50
22322;BMP180;11328;53.928;18.522;2022-12-05T02:58:41;100997.00;;;2.50
22322;BMP180;11328;53.928;18.522;2022-12-05T03:01:10;101000.00;;;2.50
22322;BMP180;11328;53.928;18.522;2022-12-05T03:03:38;100997.00;;;2.50
22322;BMP180;11328;53.928;18.522;2022-12-05T03:06:18;100985.00;;;2.50
22322;BMP180;11328;53.928;18.522;2022-12-05T03:08:52;100983.00;;;2.50
22322;BMP180;11328;53.928;18.522;2022-12-05T03:11:21;100983.00;;;2.50
22322;BMP180;11328;53.928;18.522;2022-12-05T03:13:53;100988.00;;;2.50
22322;BMP180;11328;53.928;18.522;2022-12-05T03:16:32;100992.00;;;2.40
22322;BMP180;11328;53.928;18.522;2022-12-05T03:19:12;100988.00;;;2.50
22322;BMP180;11328;53.928;18.522;2022-12-05T03:21:58;100975.00;;;2.60
22322;BMP180;11328;53.928;18.522;2022-12-05T03:24:27;100982.00;;;2.60
22322;BMP180;11328;53.928;18.522;2022-12-05T03:30:10;100973.00;;;2.40
22322;BMP180;11328;53.928;18.522;2022-12-05T03:32:45;100971.00;;;2.40
22322;BMP180;11328;53.928;18.522;2022-12-05T03:38:35;100970.00;;;2.40
22322;BMP180;11328;53.928;18.522;2022-12-05T03:41:16;100970.00;;;2.40
22322;BMP180;11328;53.928;18.522;2022-12-05T03:46:29;100966.00;;;2.40
22322;BMP180;11328;53.928;18.522;2022-12-05T03:49:20;100970.00;;;2.30
22322;BMP180;11328;53.928;18.522;2022-12-05T03:52:01;100966.00;;;2.30
22322;BMP180;11328;53.928;18.522;2022-12-05T03:54:51;100965.00;;;2.30
22322;BMP180;11328;53.928;18.522;2022-12-05T03:57:35;100961.00;;;2.30
22322;BMP180;11328;53.928;18.522;2022-12-05T04:00:20;100956.00;;;2.30
22322;BMP180;11328;53.928;18.522;2022-12-05T04:03:20;100966.00;;;2.40
22322;BMP180;11328;53.928;18.522;2022-12-05T04:05:58;100963.00;;;2.30
22322;BMP180;11328;53.928;18.522;2022-12-05T04:08:59;100968.00;;;2.40
22322;BMP180;11328;53.928;18.522;2022-12-05T04:11:32;100960.00;;;2.50
22322;BMP180;11328;53.928;18.522;2022-12-05T04:14:10;100931.00;;;2.40
22322;BMP180;11328;53.928;18.522;2022-12-05T04:16:46;100954.00;;;2.40
22322;BMP180;11328;53.928;18.522;2022-12-05T04:22:22;100946.00;;;2.50
22322;BMP180;11328;53.928;18.522;2022-12-05T04:24:53;100953.00;;;2.50
22322;BMP180;11328;53.928;18.522;2022-12-05T04:31:06;100941.00;;;2.40
22322;BMP180;11328;53.928;18.522;2022-12-05T04:40:05;100947.00;;;2.30
22322;BMP180;11328;53.928;18.522;2022-12-05T04:42:05;100956.00;;;2.30
22322;BMP180;11328;53.928;18.522;2022-12-05T04:44:50;100955.00;;;2.40
22322;BMP180;11328;53.928;18.522;2022-12-05T04:47:23;100952.00;;;2.30
22322;BMP180;11328;53.928;18.522;2022-12-05T04:49:53;100942.00;;;2.30
22322;BMP180;11328;53.928;18.522;2022-12-05T04:52:22;100931.00;;;2.30
22322;BMP180;11328;53.928;18.522;2022-12-05T04:55:11;100947.00;;;2.30
22322;BMP180;11328;53.928;18.522;2022-12-05T05:00:21;100947.00;;;2.40
22322;BMP180;11328;53.928;18.522;2022-12-05T05:03:06;100939.00;;;2.40
22322;BMP180;11328;53.928;18.522;2022-12-05T05:05:36;100938.00;;;2.50
22322;BMP180;11328;53.928;18.522;2022-12-05T05:08:04;100936.00;;;2.50
22322;BMP180;11328;53.928;18.522;2022-12-05T05:13:28;100940.00;;;2.40
22322;BMP180;11328;53.928;18.522;2022-12-05T05:15:55;100953.00;;;2.40
22322;BMP180;11328;53.928;18.522;2022-12-05T05:18:22;100950.00;;;2.50
22322;BMP180;11328;53.928;18.522;2022-12-05T05:20:49;100939.00;;;2.50
22322;BMP180;11328;53.928;18.522;2022-12-05T05:23:16;100950.00;;;2.40
22322;BMP180;11328;53.928;18.522;2022-12-05T05:25:43;100951.00;;;2.40
22322;BMP180;11328;53.928;18.522;2022-12-05T05:28:10;100917.00;;;2.40
22322;BMP180;11328;53.928;18.522;2022-12-05T05:30:37;100951.00;;;2.50
22322;BMP180;11328;53.928;18.522;2022-12-05T05:33:04;100956.00;;;2.60
22322;BMP180;11328;53.928;18.522;2022-12-05T05:35:35;100955.00;;;2.50
22322;BMP180;11328;53.928;18.522;2022-12-05T05:38:03;100953.00;;;2.50
22322;BMP180;11328;53.928;18.522;2022-12-05T05:40:30;100954.00;;;2.50
22322;BMP180;11328;53.928;18.522;2022-12-05T05:42:57;100955.00;;;2.40
22322;BMP180;11328;53.928;18.522;2022-12-05T05:45:24;100957.00;;;2.50
22322;BMP180;11328;53.928;18.522;2022-12-05T05:47:51;100950.00;;;2.40
22322;BMP180;11328;53.928;18.522;2022-12-05T05:50:18;100951.00;;;2.40
22322;BMP180;11328;53.928;18.522;2022-12-05T05:52:48;100951.00;;;2.30
22322;BMP180;11328;53.928;18.522;2022-12-05T05:55:15;100942.00;;;2.30
22322;BMP180;11328;53.928;18.522;2022-12-05T05:57:42;100955.00;;;2.40
22322;BMP180;11328;53.928;18.522;2022-12-05T06:11:49;100964.00;;;3.40
22322;BMP180;11328;53.928;18.522;2022-12-05T06:14:16;100960.00;;;3.10
22322;BMP180;11328;53.928;18.522;2022-12-05T06:16:43;100967.00;;;2.90
22322;BMP180;11328;53.928;18.522;2022-12-05T06:19:10;100945.00;;;2.80
22322;BMP180;11328;53.928;18.522;2022-12-05T06:21:37;100952.00;;;2.60
22322;BMP180;11328;53.928;18.522;2022-12-05T06:24:05;100956.00;;;2.60
22322;BMP180;11328;53.928;18.522;2022-12-05T06:26:32;100964.00;;;2.50
22322;BMP180;11328;53.928;18.522;2022-12-05T06:28:59;100964.00;;;2.60
22322;BMP180;11328;53.928;18.522;2022-12-05T06:31:26;100957.00;;;2.60
22322;BMP180;11328;53.928;18.522;2022-12-05T06:34:02;100973.00;;;2.60
22322;BMP180;11328;53.928;18.522;2022-12-05T06:36:30;100969.00;;;2.60
22322;BMP180;11328;53.928;18.522;2022-12-05T06:38:58;100969.00;;;2.60
22322;BMP180;11328;53.928;18.522;2022-12-05T06:41:26;100963.00;;;2.60
22322;BMP180;11328;53.928;18.522;2022-12-05T06:43:57;100969.00;;;2.50
22322;BMP180;11328;53.928;18.522;2022-12-05T06:46:29;100966.00;;;2.40
22322;BMP180;11328;53.928;18.522;2022-12-05T06:48:57;100959.00;;;2.00
22322;BMP180;11328;53.928;18.522;2022-12-05T06:51:24;100884.00;;;2.40
22322;BMP180;11328;53.928;18.522;2022-12-05T06:53:51;100962.00;;;2.40
22322;BMP180;11328;53.928;18.522;2022-12-05T06:56:19;100977.00;;;2.40
22322;BMP180;11328;53.928;18.522;2022-12-05T06:58:48;100968.00;;;2.50
22322;BMP180;11328;53.928;18.522;2022-12-05T07:01:22;100979.00;;;2.40
22322;BMP180;11328;53.928;18.522;2022-12-05T07:06:43;100977.00;;;2.30
22322;BMP180;11328;53.928;18.522;2022-12-05T07:09:20;100976.00;;;2.40
22322;BMP180;11328;53.928;18.522;2022-12-05T07:11:50;100968.00;;;2.40
22322;BMP180;11328;53.928;18.522;2022-12-05T07:14:18;100954.00;;;2.30
22322;BMP180;11328;53.928;18.522;2022-12-05T07:17:05;100964.00;;;2.20
22322;BMP180;11328;53.928;18.522;2022-12-05T07:19:32;100955.00;;;2.20
22322;BMP180;11328;53.928;18.522;2022-12-05T07:21:59;100948.00;;;2.20
22322;BMP180;11328;53.928;18.522;2022-12-05T07:24:26;100951.00;;;2.10
22322;BMP180;11328;53.928;18.522;2022-12-05T07:26:53;100968.00;;;2.20
22322;BMP180;11328;53.928;18.522;2022-12-05T07:29:20;100962.00;;;2.20
22322;BMP180;11328;53.928;18.522;2022-12-05T07:31:47;100955.00;;;2.30
22322;BMP180;11328;53.928;18.522;2022-12-05T07:34:14;100952.00;;;2.40
22322;BMP180;11328;53.928;18.522;2022-12-05T07:36:41;100950.00;;;2.30
22322;BMP180;11328;53.928;18.522;2022-12-05T07:39:08;100950.00;;;2.30
22322;BMP180;11328;53.928;18.522;2022-12-05T07:41:35;100952.00;;;2.40
22322;BMP180;11328;53.928;18.522;2022-12-05T07:44:02;100947.00;;;2.30
22322;BMP180;11328;53.928;18.522;2022-12-05T07:46:30;100960.00;;;2.30
22322;BMP180;11328;53.928;18.522;2022-12-05T07:48:57;100953.00;;;2.30
22322;BMP180;11328;53.928;18.522;2022-12-05T07:51:23;100955.00;;;2.40
22322;BMP180;11328;53.928;18.522;2022-12-05T07:53:50;100955.00;;;2.30
22322;BMP180;11328;53.928;18.522;2022-12-05T07:56:18;100956.00;;;2.20
22322;BMP180;11328;53.928;18.522;2022-12-05T07:58:48;100936.00;;;2.30
22322;BMP180;11328;53.928;18.522;2022-12-05T08:01:24;100954.00;;;2.20
22322;BMP180;11328;53.928;18.522;2022-12-05T08:03:54;100956.00;;;2.30
22322;BMP180;11328;53.928;18.522;2022-12-05T08:06:28;100954.00;;;2.40
22322;BMP180;11328;53.928;18.522;2022-12-05T08:08:56;100947.00;;;2.40
22322;BMP180;11328;53.928;18.522;2022-12-05T08:11:32;100957.00;;;2.30
22322;BMP180;11328;53.928;18.522;2022-12-05T08:14:04;100953.00;;;2.30
22322;BMP180;11328;53.928;18.522;2022-12-05T08:16:35;100957.00;;;2.40
22322;BMP180;11328;53.928;18.522;2022-12-05T08:19:09;100965.00;;;2.40
22322;BMP180;11328;53.928;18.522;2022-12-05T08:21:38;100963.00;;;2.20
22322;BMP180;11328;53.928;18.522;2022-12-05T08:24:06;100960.00;;;2.30
22322;BMP180;11328;53.928;18.522;2022-12-05T08:26:35;100932.00;;;2.30
22322;BMP180;11328;53.928;18.522;2022-12-05T08:29:07;100961.00;;;2.30
22322;BMP180;11328;53.928;18.522;2022-12-05T08:31:45;100961.00;;;2.30
22322;BMP180;11328;53.928;18.522;2022-12-05T08:34:15;100951.00;;;2.30
22322;BMP180;11328;53.928;18.522;2022-12-05T08:36:43;100955.00;;;2.30
22322;BMP180;11328;53.928;18.522;2022-12-05T08:39:13;100957.00;;;2.20
22322;BMP180;11328;53.928;18.522;2022-12-05T08:41:43;100955.00;;;2.20
22322;BMP180;11328;53.928;18.522;2022-12-05T08:44:12;100921.00;;;2.30
22322;BMP180;11328;53.928;18.522;2022-12-05T08:46:45;100952.00;;;2.40
22322;BMP180;11328;53.928;18.522;2022-12-05T08:49:13;100951.00;;;2.30
22322;BMP180;11328;53.928;18.522;2022-12-05T08:51:42;100945.00;;;2.30
22322;BMP180;11328;53.928;18.522;2022-12-05T08:54:09;100957.00;;;2.30
22322;BMP180;11328;53.928;18.522;2022-12-05T08:56:36;100948.00;;;2.30
22322;BMP180;11328;53.928;18.522;2022-12-05T08:59:05;100943.00;;;2.30
22322;BMP180;11328;53.928;18.522;2022-12-05T09:01:34;100950.00;;;2.30
22322;BMP180;11328;53.928;18.522;2022-12-05T09:04:05;100932.00;;;2.30
22322;BMP180;11328;53.928;18.522;2022-12-05T09:06:33;100949.00;;;2.40
22322;BMP180;11328;53.928;18.522;2022-12-05T09:09:08;100953.00;;;2.20
22322;BMP180;11328;53.928;18.522;2022-12-05T09:11:43;100947.00;;;2.20
22322;BMP180;11328;53.928;18.522;2022-12-05T09:14:13;100948.00;;;2.30
22322;BMP180;11328;53.928;18.522;2022-12-05T09:16:44;100946.00;;;2.20
22322;BMP180;11328;53.928;18.522;2022-12-05T09:19:20;100951.00;;;2.20
22322;BMP180;11328;53.928;18.522;2022-12-05T09:21:49;100932.00;;;2.20
22322;BMP180;11328;53.928;18.522;2022-12-05T09:24:16;100937.00;;;2.20
22322;BMP180;11328;53.928;18.522;2022-12-05T09:26:43;100925.00;;;2.20
22322;BMP180;11328;53.928;18.522;2022-12-05T09:29:12;100924.00;;;2.20
22322;BMP180;11328;53.928;18.522;2022-12-05T09:31:45;100924.00;;;2.20
22322;BMP180;11328;53.928;18.522;2022-12-05T09:34:14;100891.00;;;2.20
22322;BMP180;11328;53.928;18.522;2022-12-05T09:36:42;100916.00;;;2.20
22322;BMP180;11328;53.928;18.522;2022-12-05T09:39:10;100912.00;;;2.10
22322;BMP180;11328;53.928;18.522;2022-12-05T09:45:06;100918.00;;;2.20
22322;BMP180;11328;53.928;18.522;2022-12-05T09:48:15;100907.00;;;2.20
22322;BMP180;11328;53.928;18.522;2022-12-05T09:51:01;100905.00;;;2.30
22322;BMP180;11328;53.928;18.522;2022-12-05T09:53:39;100900.00;;;2.30
22322;BMP180;11328;53.928;18.522;2022-12-05T09:56:28;100905.00;;;2.30
22322;BMP180;11328;53.928;18.522;2022-12-05T09:58:58;100899.00;;;2.30
22322;BMP180;11328;53.928;18.522;2022-12-05T10:07:25;100907.00;;;2.30
22322;BMP180;11328;53.928;18.522;2022-12-05T10:15:51;100890.00;;;2.20
22322;BMP180;11328;53.928;18.522;2022-12-05T10:18:50;100889.00;;;2.10
22322;BMP180;11328;53.928;18.522;2022-12-05T10:21:35;100886.00;;;2.20
22322;BMP180;11328;53.928;18.522;2022-12-05T10:24:13;100877.00;;;2.20
22322;BMP180;11328;53.928;18.522;2022-12-05T10:26:53;100879.00;;;2.20
22322;BMP180;11328;53.928;18.522;2022-12-05T10:29:34;100875.00;;;2.30
22322;BMP180;11328;53.928;18.522;2022-12-05T10:32:18;100869.00;;;2.40
22322;BMP180;11328;53.928;18.522;2022-12-05T10:34:49;100873.00;;;2.30
22322;BMP180;11328;53.928;18.522;2022-12-05T10:37:23;100866.00;;;2.30
22322;BMP180;11328;53.928;18.522;2022-12-05T10:39:51;100874.00;;;2.30
22322;BMP180;11328;53.928;18.522;2022-12-05T10:42:34;100870.00;;;2.20
22322;BMP180;11328;53.928;18.522;2022-12-05T10:45:21;100864.00;;;2.20
22322;BMP180;11328;53.928;18.522;2022-12-05T10:47:55;100854.00;;;2.20
22322;BMP180;11328;53.928;18.522;2022-12-05T10:50:32;100852.00;;;2.30
22322;BMP180;11328;53.928;18.522;2022-12-05T10:53:04;100852.00;;;2.30
22322;BMP180;11328;53.928;18.522;2022-12-05T10:55:45;100806.00;;;2.20
22322;BMP180;11328;53.928;18.522;2022-12-05T10:58:32;100848.00;;;2.20
22322;BMP180;11328;53.928;18.522;2022-12-05T11:01:12;100838.00;;;2.20
22322;BMP180;11328;53.928;18.522;2022-12-05T11:03:42;100845.00;;;2.30
22322;BMP180;11328;53.928;18.522;2022-12-05T11:06:26;100836.00;;;2.20
22322;BMP180;11328;53.928;18.522;2022-12-05T11:09:12;100847.00;;;2.30
22322;BMP180;11328;53.928;18.522;2022-12-05T11:11:40;100848.00;;;2.30
22322;BMP180;11328;53.928;18.522;2022-12-05T11:14:23;100837.00;;;2.30
22322;BMP180;11328;53.928;18.522;2022-12-05T11:17:00;100850.00;;;2.50
22322;BMP180;11328;53.928;18.522;2022-12-05T11:21:59;100835.00;;;2.40
22322;BMP180;11328;53.928;18.522;2022-12-05T11:24:39;100832.00;;;2.30
22322;BMP180;11328;53.928;18.522;2022-12-05T11:29:52;100832.00;;;2.40
22322;BMP180;11328;53.928;18.522;2022-12-05T11:32:30;100825.00;;;2.40
22322;BMP180;11328;53.928;18.522;2022-12-05T11:37:59;100819.00;;;2.50
22322;BMP180;11328;53.928;18.522;2022-12-05T11:46:42;100808.00;;;2.40
22322;BMP180;11328;53.928;18.522;2022-12-05T11:53:09;100799.00;;;2.50
22322;BMP180;11328;53.928;18.522;2022-12-05T11:58:59;100797.00;;;2.40
22322;BMP180;11328;53.928;18.522;2022-12-05T12:01:47;100793.00;;;2.40
22322;BMP180;11328;53.928;18.522;2022-12-05T12:16:30;100771.00;;;2.50
22322;BMP180;11328;53.928;18.522;2022-12-05T12:27:47;100757.00;;;2.50
22322;BMP180;11328;53.928;18.522;2022-12-05T12:33:33;100764.00;;;2.40
22322;BMP180;11328;53.928;18.522;2022-12-05T12:50:39;100762.00;;;2.50
22322;BMP180;11328;53.928;18.522;2022-12-05T12:56:51;100754.00;;;2.40
22322;BMP180;11328;53.928;18.522;2022-12-05T13:02:40;100754.00;;;2.70
22322;BMP180;11328;53.928;18.522;2022-12-05T13:08:03;100752.00;;;2.70
22322;BMP180;11328;53.928;18.522;2022-12-05T13:10:47;100758.00;;;2.60
22322;BMP180;11328;53.928;18.522;2022-12-05T13:13:39;100736.00;;;2.60
22322;BMP180;11328;53.928;18.522;2022-12-05T13:16:12;100748.00;;;2.60
22322;BMP180;11328;53.928;18.522;2022-12-05T13:18:41;100754.00;;;2.70
22322;BMP180;11328;53.928;18.522;2022-12-05T13:21:09;100752.00;;;2.70
22322;BMP180;11328;53.928;18.522;2022-12-05T13:23:47;100753.00;;;2.70
22322;BMP180;11328;53.928;18.522;2022-12-05T13:26:17;100753.00;;;2.70
22322;BMP180;11328;53.928;18.522;2022-12-05T13:28:58;100750.00;;;2.80
22322;BMP180;11328;53.928;18.522;2022-12-05T13:31:43;100732.00;;;2.80
22322;BMP180;11328;53.928;18.522;2022-12-05T13:37:16;100740.00;;;2.80
22322;BMP180;11328;53.928;18.522;2022-12-05T13:40:04;100730.00;;;2.90
22322;BMP180;11328;53.928;18.522;2022-12-05T13:54:27;100723.00;;;3.70
22322;BMP180;11328;53.928;18.522;2022-12-05T13:56:58;100715.00;;;3.40
22322;BMP180;11328;53.928;18.522;2022-12-05T14:00:03;100693.00;;;3.20
22322;BMP180;11328;53.928;18.522;2022-12-05T14:02:51;100697.00;;;3.00
22322;BMP180;11328;53.928;18.522;2022-12-05T14:07:55;100688.00;;;2.90
22322;BMP180;11328;53.928;18.522;2022-12-05T14:15:51;100690.00;;;2.80
22322;BMP180;11328;53.928;18.522;2022-12-05T14:18:43;100694.00;;;2.90
22322;BMP180;11328;53.928;18.522;2022-12-05T14:21:18;100686.00;;;3.00
22322;BMP180;11328;53.928;18.522;2022-12-05T14:30:40;100681.00;;;2.60
22322;BMP180;11328;53.928;18.522;2022-12-05T14:33:16;100685.00;;;2.60
22322;BMP180;11328;53.928;18.522;2022-12-05T14:35:50;100683.00;;;2.50
22322;BMP180;11328;53.928;18.522;2022-12-05T14:38:31;100686.00;;;2.50
22322;BMP180;11328;53.928;18.522;2022-12-05T14:41:25;100684.00;;;2.50
22322;BMP180;11328;53.928;18.522;2022-12-05T14:43:55;100678.00;;;2.50
22322;BMP180;11328;53.928;18.522;2022-12-05T14:46:30;100675.00;;;2.50
22322;BMP180;11328;53.928;18.522;2022-12-05T14:49:50;100674.00;;;2.60
22322;BMP180;11328;53.928;18.522;2022-12-05T14:52:24;100691.00;;;2.70
22322;BMP180;11328;53.928;18.522;2022-12-05T14:54:57;100664.00;;;2.70
22322;BMP180;11328;53.928;18.522;2022-12-05T14:57:27;100675.00;;;2.80
22322;BMP180;11328;53.928;18.522;2022-12-05T15:00:04;100680.00;;;2.80
22322;BMP180;11328;53.928;18.522;2022-12-05T15:02:43;100685.00;;;2.80
22322;BMP180;11328;53.928;18.522;2022-12-05T15:05:30;100677.00;;;2.80
22322;BMP180;11328;53.928;18.522;2022-12-05T15:08:00;100691.00;;;2.90
22322;BMP180;11328;53.928;18.522;2022-12-05T15:10:33;100674.00;;;2.80
22322;BMP180;11328;53.928;18.522;2022-12-05T15:13:14;100664.00;;;2.80
22322;BMP180;11328;53.928;18.522;2022-12-05T15:16:12;100678.00;;;2.80
22322;BMP180;11328;53.928;18.522;2022-12-05T15:18:50;100669.00;;;2.80
22322;BMP180;11328;53.928;18.522;2022-12-05T15:21:47;100666.00;;;2.80
22322;BMP180;11328;53.928;18.522;2022-12-05T15:24:16;100670.00;;;2.90
22322;BMP180;11328;53.928;18.522;2022-12-05T15:26:55;100677.00;;;2.90
22322;BMP180;11328;53.928;18.522;2022-12-05T15:29:27;100667.00;;;2.90
22322;BMP180;11328;53.928;18.522;2022-12-05T15:32:04;100673.00;;;2.90
22322;BMP180;11328;53.928;18.522;2022-12-05T15:34:59;100670.00;;;2.80
22322;BMP180;11328;53.928;18.522;2022-12-05T15:40:12;100667.00;;;2.80
22322;BMP180;11328;53.928;18.522;2022-12-05T15:42:44;100658.00;;;2.90
22322;BMP180;11328;53.928;18.522;2022-12-05T15:47:41;100640.00;;;2.90
22322;BMP180;11328;53.928;18.522;2022-12-05T15:55:43;100641.00;;;2.90
22322;BMP180;11328;53.928;18.522;2022-12-05T15:58:42;100653.00;;;2.90
22322;BMP180;11328;53.928;18.522;2022-12-05T16:01:25;100655.00;;;2.80
22322;BMP180;11328;53.928;18.522;2022-12-05T16:04:21;100655.00;;;2.80
22322;BMP180;11328;53.928;18.522;2022-12-05T16:07:00;100654.00;;;2.80
22322;BMP180;11328;53.928;18.522;2022-12-05T16:09:32;100653.00;;;2.90
22322;BMP180;11328;53.928;18.522;2022-12-05T16:12:05;100646.00;;;2.90
22322;BMP180;11328;53.928;18.522;2022-12-05T16:14:37;100645.00;;;2.90
22322;BMP180;11328;53.928;18.522;2022-12-05T16:17:28;100644.00;;;2.90
22322;BMP180;11328;53.928;18.522;2022-12-05T16:22:47;100645.00;;;2.90
22322;BMP180;11328;53.928;18.522;2022-12-05T16:25:24;100644.00;;;2.90
22322;BMP180;11328;53.928;18.522;2022-12-05T16:28:00;100646.00;;;2.80
22322;BMP180;11328;53.928;18.522;2022-12-05T16:30:30;100647.00;;;2.90
22322;BMP180;11328;53.928;18.522;2022-12-05T16:35:39;100628.00;;;2.90
22322;BMP180;11328;53.928;18.522;2022-12-05T16:38:21;100634.00;;;2.90
22322;BMP180;11328;53.928;18.522;2022-12-05T16:41:05;100626.00;;;2.80
22322;BMP180;11328;53.928;18.522;2022-12-05T16:48:43;100619.00;;;2.80
22322;BMP180;11328;53.928;18.522;2022-12-05T16:51:21;100620.00;;;2.80
22322;BMP180;11328;53.928;18.522;2022-12-05T16:53:54;100621.00;;;2.80
22322;BMP180;11328;53.928;18.522;2022-12-05T16:56:26;100594.00;;;2.80
22322;BMP180;11328;53.928;18.522;2022-12-05T16:58:55;100610.00;;;2.50
22322;BMP180;11328;53.928;18.522;2022-12-05T17:01:26;100602.00;;;2.90
22322;BMP180;11328;53.928;18.522;2022-12-05T17:03:54;100598.00;;;2.90
22322;BMP180;11328;53.928;18.522;2022-12-05T17:06:24;100597.00;;;2.90
22322;BMP180;11328;53.928;18.522;2022-12-05T17:08:53;100598.00;;;2.80
22322;BMP180;11328;53.928;18.522;2022-12-05T17:11:24;100604.00;;;2.80
22322;BMP180;11328;53.928;18.522;2022-12-05T17:13:54;100570.00;;;2.80
22322;BMP180;11328;53.928;18.522;2022-12-05T17:16:22;100594.00;;;2.90
22322;BMP180;11328;53.928;18.522;2022-12-05T17:18:50;100599.00;;;2.90
22322;BMP180;11328;53.928;18.522;2022-12-05T17:21:28;100597.00;;;2.90
22322;BMP180;11328;53.928;18.522;2022-12-05T17:23:57;100601.00;;;2.90
22322;BMP180;11328;53.928;18.522;2022-12-05T17:26:24;100588.00;;;2.90
22322;BMP180;11328;53.928;18.522;2022-12-05T17:28:52;100602.00;;;2.80
22322;BMP180;11328;53.928;18.522;2022-12-05T17:31:22;100593.00;;;2.90
22322;BMP180;11328;53.928;18.522;2022-12-05T17:33:51;100601.00;;;2.90
22322;BMP180;11328;53.928;18.522;2022-12-05T17:36:20;100598.00;;;2.90
22322;BMP180;11328;53.928;18.522;2022-12-05T17:38:47;100595.00;;;2.90
22322;BMP180;11328;53.928;18.522;2022-12-05T17:41:21;100592.00;;;2.90
22322;BMP180;11328;53.928;18.522;2022-12-05T17:43:49;100597.00;;;3.00
22322;BMP180;11328;53.928;18.522;2022-12-05T17:46:21;100589.00;;;3.00
22322;BMP180;11328;53.928;18.522;2022-12-05T17:48:56;100586.00;;;2.90
22322;BMP180;11328;53.928;18.522;2022-12-05T17:51:27;100587.00;;;3.00
22322;BMP180;11328;53.928;18.522;2022-12-05T18:05:26;100563.00;;;3.70
22322;BMP180;11328;53.928;18.522;2022-12-05T18:07:53;100573.00;;;3.60
22322;BMP180;11328;53.928;18.522;2022-12-05T18:10:22;100575.00;;;3.50
22322;BMP180;11328;53.928;18.522;2022-12-05T18:12:49;100568.00;;;3.40
22322;BMP180;11328;53.928;18.522;2022-12-05T18:15:17;100586.00;;;3.40
22322;BMP180;11328;53.928;18.522;2022-12-05T18:17:44;100588.00;;;3.30